createdAt,value
2018-01-27T00:00:40.418Z,27.10
2018-01-27T00:03:08.123Z,17.40
2018-01-27T00:05:35.879Z,22.93
2018-01-27T00:08:03.638Z,20.07
2018-01-27T00:10:31.299Z,19.97
2018-01-27T00:12:59.061Z,18.20
2018-01-27T00:15:26.738Z,19.27
2018-01-27T00:17:54.448Z,20.50
2018-01-27T00:20:22.149Z,18.57
2018-01-27T00:22:52.768Z,17.70
2018-01-27T00:25:20.446Z,16.27
2018-01-27T00:27:48.152Z,25.10
2018-01-27T00:30:15.834Z,20.90
2018-01-27T00:32:43.557Z,18.03
2018-01-27T00:35:11.978Z,15.90
2018-01-27T00:37:39.677Z,23.57
2018-01-27T00:40:07.346Z,17.37
2018-01-27T00:42:35.817Z,21.30
2018-01-27T00:45:03.560Z,17.90
2018-01-27T00:47:31.263Z,25.50
2018-01-27T00:49:58.939Z,24.60
2018-01-27T00:52:26.662Z,21.53
2018-01-27T00:54:55.090Z,23.23
2018-01-27T00:57:22.801Z,18.63
2018-01-27T00:59:51.239Z,18.43
2018-01-27T01:02:18.975Z,20.53
2018-01-27T01:04:46.640Z,17.50
2018-01-27T01:07:14.322Z,20.27
2018-01-27T01:09:42.015Z,22.70
2018-01-27T01:12:10.456Z,20.20
2018-01-27T01:14:38.150Z,23.83
2018-01-27T01:17:05.807Z,19.90
2018-01-27T01:19:33.514Z,20.40
2018-01-27T01:22:01.159Z,19.60
2018-01-27T01:24:28.851Z,15.30
2018-01-27T01:26:56.502Z,15.63
2018-01-27T01:29:24.193Z,20.43
2018-01-27T01:31:51.851Z,18.87
2018-01-27T01:34:19.538Z,21.63
2018-01-27T01:36:47.970Z,17.03
2018-01-27T01:39:15.677Z,16.47
2018-01-27T01:41:44.093Z,20.60
2018-01-27T01:44:27.455Z,20.03
2018-01-27T01:46:55.108Z,16.90
2018-01-27T01:49:24.602Z,19.53
2018-01-27T01:51:52.286Z,19.20
2018-01-27T01:54:20.755Z,18.03
2018-01-27T01:56:48.410Z,15.37
2018-01-27T01:59:16.114Z,18.27
2018-01-27T02:01:43.761Z,22.03
2018-01-27T02:04:12.222Z,16.87
2018-01-27T02:06:39.882Z,20.80
2018-01-27T02:09:07.590Z,19.63
2018-01-27T02:11:35.250Z,23.30
2018-01-27T02:14:02.982Z,20.67
2018-01-27T02:16:31.649Z,15.90
2018-01-27T02:19:00.125Z,18.07
2018-01-27T02:21:28.583Z,17.83
2018-01-27T02:23:56.282Z,19.23
2018-01-27T02:26:24.710Z,12.97
2018-01-27T02:28:52.417Z,17.13
2018-01-27T02:31:20.841Z,15.60
2018-01-27T02:33:49.356Z,17.90
2018-01-27T02:36:17.798Z,16.10
2018-01-27T02:38:45.507Z,15.10
2018-01-27T02:41:13.976Z,17.77
2018-01-27T02:43:42.451Z,18.83
2018-01-27T02:46:10.879Z,16.47
2018-01-27T02:48:38.618Z,16.77
2018-01-27T02:51:07.058Z,17.40
2018-01-27T02:53:34.786Z,15.97
2018-01-27T02:56:02.528Z,19.27
2018-01-27T02:58:30.354Z,14.93
2018-01-27T03:00:58.870Z,18.50
2018-01-27T03:03:27.999Z,16.13
2018-01-27T03:05:55.675Z,19.30
2018-01-27T03:08:23.416Z,15.40
2018-01-27T03:10:51.837Z,15.93
2018-01-27T03:13:20.310Z,17.00
2018-01-27T03:15:48.742Z,18.07
2018-01-27T03:18:16.450Z,19.97
2018-01-27T03:20:44.876Z,19.17
2018-01-27T03:23:12.614Z,17.17
2018-01-27T03:25:40.282Z,20.83
2018-01-27T03:28:08.046Z,22.30
2018-01-27T03:30:35.703Z,25.80
2018-01-27T03:33:03.422Z,28.83
2018-01-27T03:35:31.922Z,21.00
2018-01-27T03:37:59.655Z,20.30
2018-01-27T03:40:28.149Z,65.50
2018-01-27T03:42:56.994Z,68.97
2018-01-27T03:45:24.694Z,65.83
2018-01-27T03:47:53.110Z,29.73
2018-01-27T03:50:20.818Z,31.47
2018-01-27T03:52:49.407Z,76.93
2018-01-27T03:55:17.875Z,29.27
2018-01-27T03:57:46.352Z,41.63
2018-01-27T04:00:14.047Z,22.87
2018-01-27T04:02:41.703Z,27.10
2018-01-27T04:05:09.396Z,63.47
2018-01-27T04:07:37.047Z,34.63
2018-01-27T04:10:04.770Z,25.90
2018-01-27T04:12:33.205Z,23.10
2018-01-27T04:15:00.910Z,49.07
2018-01-27T04:17:28.612Z,21.60
2018-01-27T04:19:56.314Z,23.53
2018-01-27T04:22:24.734Z,28.00
2018-01-27T04:24:52.455Z,76.37
2018-01-27T04:27:20.878Z,20.10
2018-01-27T04:29:48.624Z,28.77
2018-01-27T04:32:16.287Z,16.53
2018-01-27T04:34:44.003Z,27.63
2018-01-27T04:37:12.441Z,15.53
2018-01-27T04:39:40.138Z,15.40
2018-01-27T04:42:07.789Z,19.93
2018-01-27T04:44:35.502Z,18.40
2018-01-27T04:47:03.162Z,28.83
2018-01-27T04:49:30.879Z,21.13
2018-01-27T04:51:58.554Z,23.87
2018-01-27T04:54:27.044Z,26.33
2018-01-27T04:56:54.710Z,32.23
2018-01-27T04:59:22.442Z,26.70
2018-01-27T05:01:50.868Z,35.40
2018-01-27T05:04:18.567Z,29.80
2018-01-27T05:06:46.227Z,28.83
2018-01-27T05:09:13.942Z,23.87
2018-01-27T05:11:41.593Z,25.50
2018-01-27T05:14:09.298Z,26.43
2018-01-27T05:16:36.961Z,34.43
2018-01-27T05:19:05.126Z,21.40
2018-01-27T05:21:33.690Z,24.37
2018-01-27T05:24:01.386Z,18.17
2018-01-27T05:26:29.923Z,30.27
2018-01-27T05:28:57.634Z,37.67
2018-01-27T05:31:26.050Z,19.90
2018-01-27T05:33:53.759Z,18.90
2018-01-27T05:36:21.415Z,15.90
2018-01-27T05:38:49.134Z,30.53
2018-01-27T05:41:16.790Z,18.33
2018-01-27T05:43:44.498Z,18.63
2018-01-27T05:46:12.153Z,18.57
2018-01-27T05:48:39.870Z,16.77
2018-01-27T05:51:07.542Z,19.40
2018-01-27T05:53:35.309Z,18.23
2018-01-27T05:56:02.974Z,21.57
2018-01-27T05:58:30.725Z,20.47
2018-01-27T06:00:58.387Z,33.80
2018-01-27T06:03:26.048Z,24.50
2018-01-27T06:05:53.746Z,26.43
2018-01-27T06:08:22.213Z,29.70
2018-01-27T06:10:49.917Z,32.60
2018-01-27T06:13:17.627Z,20.73
2018-01-27T06:15:45.362Z,26.70
2018-01-27T06:18:13.077Z,20.93
2018-01-27T06:20:40.830Z,24.83
2018-01-27T06:23:09.278Z,27.60
2018-01-27T06:25:36.978Z,85.07
2018-01-27T06:28:04.646Z,22.53
2018-01-27T06:30:32.381Z,39.77
2018-01-27T06:33:00.819Z,21.10
2018-01-27T06:35:28.526Z,48.73
2018-01-27T06:37:56.952Z,24.67
2018-01-27T06:40:24.645Z,29.67
2018-01-27T06:42:52.321Z,35.27
2018-01-27T06:45:20.802Z,17.90
2018-01-27T06:47:49.488Z,25.63
2018-01-27T06:50:17.956Z,28.33
2018-01-27T06:52:46.387Z,21.63
2018-01-27T06:55:14.086Z,30.93
2018-01-27T06:57:41.757Z,22.43
2018-01-27T07:00:10.230Z,28.30
2018-01-27T07:02:38.666Z,26.50
2018-01-27T07:05:06.382Z,23.43
2018-01-27T07:07:34.815Z,22.77
2018-01-27T07:10:02.529Z,24.20
2018-01-27T07:12:30.195Z,20.83
2018-01-27T07:14:57.904Z,29.80
2018-01-27T07:17:25.562Z,25.83
2018-01-27T07:19:53.282Z,19.73
2018-01-27T07:22:20.942Z,25.73
2018-01-27T07:24:48.655Z,26.30
2018-01-27T07:27:16.324Z,23.53
2018-01-27T07:29:44.830Z,24.67
2018-01-27T07:32:12.500Z,25.50
2018-01-27T07:34:40.203Z,49.23
2018-01-27T07:37:07.858Z,28.83
2018-01-27T07:39:35.579Z,25.63
2018-01-27T07:42:03.244Z,19.73
2018-01-27T07:44:30.956Z,30.53
2018-01-27T07:46:59.431Z,33.53
2018-01-27T07:49:27.136Z,27.50
2018-01-27T07:51:54.793Z,24.30
2018-01-27T07:54:22.534Z,32.87
2018-01-27T07:56:50.197Z,28.17
2018-01-27T07:59:17.922Z,33.60
2018-01-27T08:01:45.586Z,26.77
2018-01-27T08:04:13.288Z,31.47
2018-01-27T08:06:40.962Z,31.40
2018-01-27T08:09:08.678Z,26.40
2018-01-27T08:11:37.096Z,26.57
2018-01-27T08:14:04.811Z,32.20
2018-01-27T08:16:33.237Z,20.50
2018-01-27T08:19:00.931Z,26.47
2018-01-27T08:21:28.588Z,27.10
2018-01-27T08:23:56.247Z,25.50
2018-01-27T08:26:23.947Z,24.87
2018-01-27T08:28:51.602Z,30.03
2018-01-27T08:31:20.059Z,26.30
2018-01-27T08:33:47.727Z,23.20
2018-01-27T08:36:16.224Z,24.73
2018-01-27T08:38:43.905Z,30.30
2018-01-27T08:41:11.626Z,27.63
2018-01-27T08:43:40.244Z,27.73
2018-01-27T08:46:07.990Z,27.83
2018-01-27T08:48:35.659Z,27.90
2018-01-27T08:51:03.369Z,43.93
2018-01-27T08:53:31.027Z,30.47
2018-01-27T08:55:58.772Z,29.37
2018-01-27T08:58:26.776Z,24.63
2018-01-27T09:00:55.241Z,25.30
2018-01-27T09:03:22.914Z,26.43
2018-01-27T09:05:51.382Z,22.83
2018-01-27T09:08:19.049Z,24.40
2018-01-27T09:10:47.558Z,27.00
2018-01-27T09:13:15.220Z,26.87
2018-01-27T09:15:42.934Z,52.73
2018-01-27T09:18:10.600Z,24.70
2018-01-27T09:20:39.074Z,23.60
2018-01-27T09:23:06.739Z,25.07
2018-01-27T09:25:35.210Z,30.47
2018-01-27T09:28:02.875Z,29.40
2018-01-27T09:30:30.583Z,30.47
2018-01-27T09:32:59.002Z,33.03
2018-01-27T09:35:26.714Z,28.17
2018-01-27T09:37:54.370Z,37.37
2018-01-27T09:40:22.082Z,21.70
2018-01-27T09:42:49.758Z,24.53
2018-01-27T09:45:18.345Z,24.57
2018-01-27T09:47:46.819Z,28.33
2018-01-27T09:50:15.291Z,23.10
2018-01-27T09:52:43.729Z,22.93
2018-01-27T09:55:11.439Z,17.37
2018-01-27T09:57:39.867Z,17.77
2018-01-27T10:00:07.611Z,53.20
2018-01-27T10:02:35.284Z,103.80
2018-01-27T10:05:02.997Z,36.83
2018-01-27T10:07:31.425Z,42.17
2018-01-27T10:09:59.154Z,59.23
2018-01-27T10:12:26.842Z,95.17
2018-01-27T10:14:54.543Z,26.20
2018-01-27T10:17:22.962Z,38.53
2018-01-27T10:19:50.658Z,23.97
2018-01-27T10:22:18.319Z,52.53
2018-01-27T10:24:46.014Z,30.43
2018-01-27T10:27:14.430Z,171.50
2018-01-27T10:29:42.128Z,26.80
2018-01-27T10:32:09.791Z,31.23
2018-01-27T10:34:37.485Z,22.00
2018-01-27T10:37:05.180Z,23.37
2018-01-27T10:39:32.879Z,24.33
2018-01-27T10:42:01.300Z,21.10
2018-01-27T10:44:29.052Z,25.40
2018-01-27T10:46:56.719Z,22.83
2018-01-27T10:49:24.447Z,62.10
2018-01-27T10:51:52.976Z,55.57
2018-01-27T10:54:20.625Z,22.67
2018-01-27T10:56:48.340Z,22.37
2018-01-27T10:59:16.777Z,21.00
2018-01-27T11:01:44.479Z,22.97
2018-01-27T11:04:12.909Z,19.50
2018-01-27T11:06:40.619Z,20.60
2018-01-27T11:09:09.035Z,35.03
2018-01-27T11:11:36.727Z,17.27
2018-01-27T11:14:04.388Z,26.60
2018-01-27T11:16:37.695Z,21.10
2018-01-27T11:19:06.139Z,20.93
2018-01-27T11:21:33.938Z,24.43
2018-01-27T11:24:02.358Z,19.73
2018-01-27T11:26:30.054Z,30.63
2018-01-27T11:28:57.723Z,22.30
2018-01-27T11:31:25.421Z,26.00
2018-01-27T11:33:53.085Z,21.60
2018-01-27T11:36:20.775Z,19.17
2018-01-27T11:38:48.427Z,20.60
2018-01-27T11:41:16.118Z,23.97
2018-01-27T11:43:43.783Z,24.53
2018-01-27T11:46:11.495Z,24.20
2018-01-27T11:48:39.400Z,22.10
2018-01-27T11:51:07.099Z,25.10
2018-01-27T11:53:34.803Z,28.17
2018-01-27T11:56:02.543Z,24.67
2018-01-27T11:58:30.199Z,23.80
2018-01-27T12:00:57.850Z,30.93
2018-01-27T12:03:25.586Z,22.63
2018-01-27T12:05:54.010Z,25.07
2018-01-27T12:08:21.706Z,25.90
2018-01-27T12:10:49.372Z,25.13
2018-01-27T12:13:17.862Z,22.00
2018-01-27T12:15:46.302Z,22.60
2018-01-27T12:18:14.010Z,31.53
2018-01-27T12:20:41.674Z,22.47
2018-01-27T12:23:09.395Z,24.60
2018-01-27T12:25:37.062Z,31.83
2018-01-27T12:28:04.799Z,26.53
2018-01-27T12:30:32.463Z,32.37
2018-01-27T12:33:00.179Z,34.33
2018-01-27T12:35:27.846Z,33.00
2018-01-27T12:37:57.720Z,31.67
2018-01-27T12:40:26.361Z,41.50
2018-01-27T12:42:54.063Z,30.80
2018-01-27T12:45:22.506Z,30.10
2018-01-27T12:47:50.212Z,31.70
2018-01-27T12:50:18.658Z,38.63
2018-01-27T12:52:46.399Z,37.30
2018-01-27T12:55:14.071Z,29.60
2018-01-27T12:57:41.796Z,40.03
2018-01-27T13:00:09.463Z,38.03
2018-01-27T13:02:37.126Z,44.93
2018-01-27T13:05:04.829Z,34.17
2018-01-27T13:07:32.498Z,31.97
2018-01-27T13:10:00.966Z,33.60
2018-01-27T13:12:28.626Z,32.00
2018-01-27T13:14:56.334Z,32.03
2018-01-27T13:17:24.025Z,35.80
2018-01-27T13:19:51.729Z,34.37
2018-01-27T13:22:19.386Z,36.77
2018-01-27T13:24:47.095Z,47.93
2018-01-27T13:27:14.771Z,38.60
2018-01-27T13:29:42.481Z,41.53
2018-01-27T13:32:10.153Z,87.50
2018-01-27T13:34:37.862Z,41.57
2018-01-27T13:37:05.521Z,39.20
2018-01-27T13:39:33.248Z,41.00
2018-01-27T13:42:00.943Z,39.33
2018-01-27T13:44:28.758Z,41.13
2018-01-27T13:46:56.472Z,32.57
2018-01-27T13:49:24.946Z,36.40
2018-01-27T13:51:53.409Z,38.27
2018-01-27T13:54:22.317Z,37.57
2018-01-27T13:56:51.070Z,35.93
2018-01-27T13:59:18.794Z,37.73
2018-01-27T14:01:46.462Z,36.27
2018-01-27T14:04:14.161Z,42.90
2018-01-27T14:06:41.883Z,40.10
2018-01-27T14:09:09.552Z,40.57
2018-01-27T14:11:37.259Z,48.07
2018-01-27T14:14:05.690Z,38.60
2018-01-27T14:16:33.394Z,39.10
2018-01-27T14:19:01.835Z,41.47
2018-01-27T14:21:29.550Z,42.60
2018-01-27T14:23:58.013Z,40.80
2018-01-27T14:26:26.494Z,37.40
2018-01-27T14:28:54.921Z,41.23
2018-01-27T14:31:22.621Z,41.47
2018-01-27T14:33:50.287Z,34.93
2018-01-27T14:36:18.838Z,32.57
2018-01-27T14:38:46.518Z,32.40
2018-01-27T14:41:14.224Z,40.07
2018-01-27T14:43:41.898Z,35.43
2018-01-27T14:46:09.632Z,39.40
2018-01-27T14:48:37.304Z,35.30
2018-01-27T14:51:05.090Z,44.27
2018-01-27T14:53:32.808Z,33.73
2018-01-27T14:56:00.624Z,59.80
2018-01-27T14:58:28.338Z,43.07
2018-01-27T15:00:56.088Z,44.23
2018-01-27T15:03:24.600Z,43.57
2018-01-27T15:05:52.290Z,43.80
2018-01-27T15:08:20.060Z,43.47
2018-01-27T15:10:47.814Z,39.27
2018-01-27T15:13:15.574Z,40.77
2018-01-27T15:15:43.438Z,42.17
2018-01-27T15:18:11.150Z,49.37
2018-01-27T15:20:38.945Z,47.50
2018-01-27T15:23:06.686Z,38.60
2018-01-27T15:25:34.364Z,39.40
2018-01-27T15:28:02.143Z,42.23
2018-01-27T15:30:29.837Z,39.20
2018-01-27T15:32:58.342Z,38.93
2018-01-27T15:35:26.021Z,41.67
2018-01-27T15:37:53.923Z,37.33
2018-01-27T15:40:21.587Z,36.50
2018-01-27T15:42:50.036Z,36.90
2018-01-27T15:45:17.774Z,28.17
2018-01-27T15:47:45.438Z,31.27
2018-01-27T15:50:13.183Z,28.60
2018-01-27T15:52:40.920Z,30.37
2018-01-27T15:55:09.690Z,29.03
2018-01-27T15:57:37.425Z,27.60
2018-01-27T16:00:05.116Z,38.57
2018-01-27T16:02:33.642Z,31.10
2018-01-27T16:05:01.298Z,34.93
2018-01-27T16:07:29.030Z,36.53
2018-01-27T16:09:56.705Z,32.37
2018-01-27T16:12:24.498Z,32.63
2018-01-27T16:14:52.162Z,34.70
2018-01-27T16:17:19.992Z,36.07
2018-01-27T16:19:47.658Z,39.07
2018-01-27T16:22:15.414Z,34.10
2018-01-27T16:24:43.086Z,31.27
2018-01-27T16:27:11.083Z,33.23
2018-01-27T16:29:38.742Z,34.10
2018-01-27T16:32:06.408Z,37.30
2018-01-27T16:34:34.156Z,27.60
2018-01-27T16:37:01.870Z,31.70
2018-01-27T16:39:30.194Z,33.80
2018-01-27T16:42:00.161Z,33.67
2018-01-27T16:44:27.954Z,32.90
2018-01-27T16:46:55.730Z,28.93
2018-01-27T16:49:23.515Z,29.73
2018-01-27T16:51:51.957Z,32.30
2018-01-27T16:54:19.790Z,29.77
2018-01-27T16:56:47.741Z,33.33
2018-01-27T16:59:15.666Z,37.80
2018-01-27T17:01:43.569Z,37.70
2018-01-27T17:04:11.419Z,35.47
2018-01-27T17:06:40.179Z,41.17
2018-01-27T17:09:07.850Z,33.40
2018-01-27T17:11:35.773Z,35.33
2018-01-27T17:14:03.561Z,33.37
2018-01-27T17:16:31.308Z,30.27
2018-01-27T17:18:59.044Z,37.33
2018-01-27T17:21:26.897Z,40.17
2018-01-27T17:23:54.784Z,31.80
2018-01-27T17:26:22.518Z,46.10
2018-01-27T17:28:50.325Z,41.80
2018-01-27T17:31:17.982Z,38.50
2018-01-27T17:33:45.868Z,39.23
2018-01-27T17:36:13.918Z,42.47
2018-01-27T17:38:41.687Z,40.17
2018-01-27T17:41:09.531Z,45.10
2018-01-27T17:43:37.196Z,52.60
2018-01-27T17:46:05.047Z,49.60
2018-01-27T17:48:32.734Z,42.23
2018-01-27T17:51:00.475Z,52.73
2018-01-27T17:53:28.242Z,51.53
2018-01-27T17:55:55.974Z,50.53
2018-01-27T17:58:23.758Z,53.30
2018-01-27T18:00:51.542Z,47.87
2018-01-27T18:03:19.331Z,43.93
2018-01-27T18:05:47.757Z,38.93
2018-01-27T18:08:15.507Z,44.87
2018-01-27T18:10:43.211Z,35.17
2018-01-27T18:13:11.067Z,37.37
2018-01-27T18:15:38.778Z,41.83
2018-01-27T18:18:06.495Z,37.63
2018-01-27T18:20:34.243Z,28.83
2018-01-27T18:23:02.778Z,31.03
2018-01-27T18:25:30.530Z,28.53
2018-01-27T18:27:59.284Z,26.70
2018-01-27T18:30:26.974Z,25.43
2018-01-27T18:32:55.414Z,22.83
2018-01-27T18:35:24.347Z,25.23
2018-01-27T18:37:52.132Z,26.47
2018-01-27T18:40:19.802Z,30.93
2018-01-27T18:42:47.542Z,25.60
2018-01-27T18:45:15.197Z,27.13
2018-01-27T18:47:43.120Z,32.67
2018-01-27T18:50:10.855Z,32.33
2018-01-27T18:52:38.538Z,32.83
2018-01-27T18:55:06.313Z,34.10
2018-01-27T18:57:34.750Z,24.93
2018-01-27T19:00:02.613Z,27.90
2018-01-27T19:02:30.338Z,34.10
2018-01-27T19:04:58.074Z,30.00
2018-01-27T19:07:26.512Z,31.30
2018-01-27T19:09:54.411Z,31.00
2018-01-27T19:12:22.098Z,34.73
2018-01-27T19:14:49.771Z,36.67
2018-01-27T19:17:17.597Z,38.07
2018-01-27T19:19:45.257Z,30.13
2018-01-27T19:22:13.772Z,40.17
2018-01-27T19:24:41.581Z,49.53
2018-01-27T19:27:09.293Z,39.00
2018-01-27T19:29:36.971Z,43.90
2018-01-27T19:32:04.741Z,38.57
2018-01-27T19:34:32.417Z,44.77
2018-01-27T19:37:00.154Z,41.90
2018-01-27T19:39:27.848Z,40.57
2018-01-27T19:41:55.597Z,48.90
2018-01-27T19:44:23.318Z,44.60
2018-01-27T19:46:51.142Z,46.27
2018-01-27T19:49:19.612Z,51.27
2018-01-27T19:51:47.398Z,56.30
2018-01-27T19:54:15.239Z,49.47
2018-01-27T19:56:43.725Z,53.47
2018-01-27T19:59:12.334Z,44.90
2018-01-27T20:01:40.016Z,53.17
2018-01-27T20:04:07.783Z,55.60
2018-01-27T20:06:35.523Z,52.57
2018-01-27T20:09:03.301Z,56.57
2018-01-27T20:11:31.060Z,72.00
2018-01-27T20:13:58.724Z,68.93
2018-01-27T20:16:26.479Z,79.87
2018-01-27T20:18:54.231Z,78.00
2018-01-27T20:21:21.905Z,69.40
2018-01-27T20:23:49.662Z,66.67
2018-01-27T20:26:17.350Z,64.10
2018-01-27T20:28:45.217Z,66.87
2018-01-27T20:31:12.891Z,62.23
2018-01-27T20:33:40.558Z,64.23
2018-01-27T20:36:09.082Z,62.20
2018-01-27T20:38:36.761Z,64.07
2018-01-27T20:41:04.498Z,82.40
2018-01-27T20:43:32.239Z,64.37
2018-01-27T20:46:00.016Z,60.47
2018-01-27T20:48:27.828Z,65.70
2018-01-27T20:50:55.538Z,60.57
2018-01-27T20:53:23.983Z,55.43
2018-01-27T20:55:52.453Z,65.27
2018-01-27T20:58:20.228Z,60.37
2018-01-27T21:00:48.699Z,57.77
2018-01-27T21:03:17.364Z,76.37
2018-01-27T21:05:45.038Z,67.07
2018-01-27T21:08:13.472Z,64.13
2018-01-27T21:10:41.214Z,60.43
2018-01-27T21:13:08.887Z,62.70
2018-01-27T21:15:36.627Z,65.73
2018-01-27T21:18:04.290Z,69.47
2018-01-27T21:20:32.047Z,63.17
2018-01-27T21:22:59.717Z,70.07
2018-01-27T21:25:27.629Z,73.70
2018-01-27T21:27:55.290Z,63.87
2018-01-27T21:30:22.962Z,71.10
2018-01-27T21:32:51.467Z,63.07
2018-01-27T21:35:19.403Z,66.10
2018-01-27T21:37:47.138Z,55.07
2018-01-27T21:40:14.819Z,65.70
2018-01-27T21:42:42.766Z,66.27
2018-01-27T21:45:10.438Z,66.73
2018-01-27T21:47:38.112Z,58.53
2018-01-27T21:50:06.630Z,59.30
2018-01-27T21:52:34.374Z,63.70
2018-01-27T21:55:02.091Z,58.37
2018-01-27T21:57:29.834Z,48.57
2018-01-27T21:59:57.640Z,51.30
2018-01-27T22:02:26.073Z,55.13
2018-01-27T22:04:53.901Z,44.87
2018-01-27T22:07:21.582Z,43.53
2018-01-27T22:09:49.529Z,49.40
2018-01-27T22:12:17.213Z,45.20
2018-01-27T22:14:44.946Z,47.13
2018-01-27T22:17:12.606Z,37.10
2018-01-27T22:19:40.347Z,46.70
2018-01-27T22:22:08.779Z,37.37
2018-01-27T22:24:36.936Z,41.97
2018-01-27T22:27:04.604Z,39.87
2018-01-27T22:29:32.354Z,42.63
2018-01-27T22:32:00.164Z,40.37
2018-01-27T22:34:27.912Z,40.50
2018-01-27T22:36:55.832Z,41.17
2018-01-27T22:39:24.442Z,44.53
2018-01-27T22:41:52.103Z,39.70
2018-01-27T22:44:19.847Z,37.63
2018-01-27T22:46:48.758Z,38.70
2018-01-27T22:49:16.667Z,32.87
2018-01-27T22:51:45.126Z,37.07
2018-01-27T22:54:12.858Z,34.80
2018-01-27T22:56:40.539Z,32.40
2018-01-27T22:59:08.283Z,32.47
2018-01-27T23:01:35.963Z,30.77
2018-01-27T23:04:03.703Z,29.63
2018-01-27T23:06:31.375Z,36.53
2018-01-27T23:08:59.115Z,34.70
2018-01-27T23:11:26.859Z,37.80
2018-01-27T23:13:54.689Z,32.37
2018-01-27T23:16:23.120Z,33.83
2018-01-27T23:18:50.814Z,32.13
2018-01-27T23:21:19.323Z,34.73
2018-01-27T23:23:46.986Z,35.43
2018-01-27T23:26:14.722Z,34.10
2018-01-27T23:28:43.159Z,38.43
2018-01-27T23:31:10.898Z,38.50
2018-01-27T23:33:38.703Z,37.03
2018-01-27T23:36:06.438Z,31.00
2018-01-27T23:38:34.918Z,36.90
2018-01-27T23:41:02.661Z,34.77
2018-01-27T23:43:30.332Z,33.20
2018-01-27T23:45:58.075Z,38.20
2018-01-27T23:48:25.826Z,37.43
2018-01-27T23:50:53.574Z,35.50
2018-01-27T23:53:21.312Z,39.80
2018-01-27T23:55:49.742Z,39.23
2018-01-27T23:58:17.474Z,31.73
